METAR Data
IDs: Format: Raw Decoded Include TAF

Data at: 0232 UTC 03 Jul 2022

KMLB 030153Z 29003KT 10SM CLR 27/24 A3006 RMK AO2 SLP179 T02670239

KMLB 022343Z 0300/0324 14008KT P6SM FEW025 SCT250
  FM030200 17004KT P6SM FEW025 SCT250
  FM031400 18007KT P6SM SCT025
  FM031700 11011KT P6SM VCTS SCT030CB SCT120 SCT250


KTIX 030047Z 31005KT 7SM SCT050 27/25 A3007

KTIX 022340Z 0300/0324 VRB03KT P6SM FEW025 BKN250
  FM031400 22006KT P6SM SCT025
  FM031700 11011KT P6SM VCTS SCT030CB SCT120 SCT250 AMD NOT SKED 0301/0311


KCOF 030156Z AUTO 18006KT 10SM FEW019 28/27 A3005 RMK AO2 SLP180 T02840271 FZRANO $
No TAF found for KCOF

KVRB 030153Z AUTO 14006KT 10SM CLR 28/24 A3007 RMK AO2 SLP181 T02780239

KVRB 022343Z 0300/0324 13010KT P6SM FEW025 SCT250
  FM030200 16004KT P6SM FEW025 SCT250
  FM031400 17007KT P6SM SCT025
  FM031700 11011KT P6SM VCTS SCT030CB SCT120 SCT250